Flight Track Log - Related Links

Times and Time Zones

All times are in EST time to prevent confusion due to time zone crossing. See the JBU498 flight status page for this flight to view local times or setup timezone preferences in your user account.


Time Position Orientation Groundspeed Altitude Reporting Facility
EST Latitude Longitude Course Direction KTS MPH feet Rate Location/Type
Tue 03:23:49 AM 47.4333 -122.1469 254° West  Level FlightAware Approximate
Tue 03:24:42 AM 47.4017 -122.3092 170° South 161 185 2,500  Level Seattle Center
Tue 03:25:43 AM 47.3372 -122.2922 89° East 246 283 4,300 2,304 Climbing Seattle Center
Tue 03:27:00 AM 47.3392 -122.1700 72° East 272 313 7,800 2,628 Climbing Seattle Center
Tue 03:28:00 AM 47.3631 -122.0583 74° East 289 333 10,300 1,800 Climbing Seattle Center
Tue 03:29:00 AM 47.3883 -121.9247 84° East 360 414 11,400 1,686 Climbing Seattle Center
Tue 03:30:01 AM 47.3989 -121.7761 84° East 371 427 13,700 2,231 Climbing Seattle Center
Tue 03:31:01 AM 47.4089 -121.6225 85° East 380 437 15,900 1,800 Climbing Seattle Center
Tue 03:32:01 AM 47.4192 -121.4606 86° East 397 457 17,300 1,400 Climbing Seattle Center
Tue 03:33:01 AM 47.4275 -121.2853 85° East 431 496 18,700 1,450 Climbing Seattle Center
Tue 03:34:01 AM 47.4389 -121.1053 85° East 444 511 20,200 2,100 Climbing Seattle Center
Tue 03:35:01 AM 47.4503 -120.9244 85° East 447 514 22,900 2,000 Climbing Seattle Center
Tue 03:36:01 AM 47.4603 -120.7358 85° East 431 496 24,200 1,450 Climbing Seattle Center
Tue 03:37:01 AM 47.4697 -120.5583 85° East 433 498 25,800 1,289 Climbing Seattle Center
Tue 03:38:02 AM 47.4800 -120.3806 86° East 434 499 26,800 992 Climbing Seattle Center
Tue 03:39:02 AM 47.4886 -120.1972 85° East 445 512 27,800 1,200 Climbing Seattle Center
Tue 03:40:02 AM 47.4989 -120.0117 86° East 452 520 29,200 1,300 Climbing Seattle Center
Tue 03:41:02 AM 47.5075 -119.8258 86° East 453 521 30,400 1,250 Climbing Seattle Center
Tue 03:42:02 AM 47.5158 -119.6408 86° East 454 522 31,700 1,150 Climbing Seattle Center
Tue 03:43:02 AM 47.5247 -119.4586 87° East 448 516 32,700 1,100 Climbing Seattle Center
Tue 03:44:02 AM 47.5319 -119.2778 86° East 444 511 33,900 843 Climbing Seattle Center
Tue 03:45:03 AM 47.5394 -119.0975 86° East 441 507 34,400 545 Climbing Seattle Center
Tue 03:46:03 AM 47.5469 -118.9161 87° East 443 510 35,000 300 Climbing Seattle Center
Tue 03:47:03 AM 47.5536 -118.7369 86° East 440 506 35,000  Level Seattle Center
Tue 03:48:03 AM 47.5622 -118.5611 86° East 437 503 35,000  Level Seattle Center
Tue 03:49:03 AM 47.5694 -118.3839 86° East 434 499 35,000  Level Seattle Center
Tue 03:50:03 AM 47.5772 -118.2014 87° East 436 502 35,000  Level Seattle Center
Tue 03:51:04 AM 47.5831 -118.0189 87° East 438 504 35,000  Level Seattle Center
Tue 03:52:04 AM 47.5889 -117.8364 87° East 441 507 35,000  Level Seattle Center
Tue 03:53:04 AM 47.5953 -117.6556 89° East 441 507 35,000  Level Seattle Center
Tue 03:54:04 AM 47.5975 -117.4622 88° East 449 517 35,000  Level Seattle Center
Tue 03:55:04 AM 47.6025 -117.2792 88° East 446 513 35,000  Level Seattle Center
Tue 03:56:04 AM 47.6056 -117.0989 87° East 443 510 35,000  Level Seattle Center
Tue 03:57:05 AM 47.6125 -116.9042 88° East 434 499 35,000  Level Seattle Center
Tue 03:58:05 AM 47.6161 -116.7206 89° East 443 510 35,000 -50 Level Seattle Center
Tue 03:59:05 AM 47.6189 -116.5417 88° East 439 505 34,900  Descending Seattle Center
Tue 04:00:05 AM 47.6222 -116.3611 88° East 439 505 35,000 50 Climbing Seattle Center
Tue 04:01:05 AM 47.6253 -116.1814 88° East 438 504 35,000  Level Seattle Center
Tue 04:02:05 AM 47.6286 -116.0003 89° East 440 506 35,000  Level Seattle Center
Tue 04:03:05 AM 47.6306 -115.8197 88° East 439 505 35,000  Level Seattle Center
Tue 04:04:06 AM 47.6339 -115.6594 89° East 438 504 35,000  Level Seattle Center
Tue 04:05:06 AM 47.6358 -115.4892 89° East 425 489 35,000  Level Seattle Center
Tue 04:06:06 AM 47.6375 -115.2847 89° East 418 481 35,000  Level Seattle Center
Tue 04:07:06 AM 47.6394 -115.1158 89° East 414 476 35,000  Level Seattle Center
Tue 04:08:06 AM 47.6411 -114.9469 89° East 413 475 35,000  Level Seattle Center
Tue 04:09:07 AM 47.6428 -114.7800 90° East 410 472 35,000  Level Seattle Center
Tue 04:10:07 AM 47.6428 -114.6131 90° East 410 472 35,000 -50 Level Seattle Center
Tue 04:11:07 AM 47.6436 -114.4450 90° East 411 473 34,900  Descending Seattle Center
Tue 04:12:07 AM 47.6433 -114.2767 90° East 412 474 35,000 50 Climbing Seattle Center
Tue 04:13:07 AM 47.6428 -114.1036 90° East 420 483 35,000  Level Seattle Center
Tue 04:14:07 AM 47.6419 -113.9294 90° East 424 488 35,000  Level Seattle Center
Tue 04:15:08 AM 47.6417 -113.7525 90° East 429 494 35,000  Level Seattle Center
Tue 04:16:08 AM 47.6408 -113.5739 91° East 434 499 35,000 -44 Level Seattle Center
Tue 04:17:24 AM 47.6381 -113.3600 90° East 435 501 34,900 -44 Descending Salt Lake Center
Tue 04:18:24 AM 47.6369 -113.1814 91° East 436 502 34,900  Level Salt Lake Center
Tue 04:19:25 AM 47.6356 -113.0006 91° East 439 505 34,900 50 Level Salt Lake Center
Tue 04:20:25 AM 47.6319 -112.7953 91° East 447 514 35,000 50 Climbing Salt Lake Center
Tue 04:21:25 AM 47.6297 -112.6089 91° East 451 519 35,000  Level Salt Lake Center
Tue 04:22:25 AM 47.6264 -112.4206 91° East 455 524 35,000 -50 Level Salt Lake Center
Tue 04:23:25 AM 47.6233 -112.2350 91° East 455 524 34,900  Descending Salt Lake Center
Tue 04:24:25 AM 47.6211 -112.0478 92° East 455 524 35,000  Climbing Salt Lake Center
Tue 04:25:25 AM 47.6175 -111.8617 92° East 454 522 34,900 -50 Descending Salt Lake Center
Tue 04:26:25 AM 47.6128 -111.6742 92° East 456 525 34,900 50 Level Salt Lake Center
Tue 04:27:26 AM 47.6081 -111.4842 92° East 460 529 35,000 50 Climbing Salt Lake Center
Tue 04:28:26 AM 47.6031 -111.2786 92° East 461 531 35,000  Level Salt Lake Center
Tue 04:29:26 AM 47.6000 -111.1239 93° East 461 531 35,000  Level Salt Lake Center
Tue 04:30:26 AM 47.5933 -110.9344 92° East 463 533 35,000  Level Salt Lake Center
Tue 04:31:26 AM 47.5886 -110.7431 92° East 465 535 35,000  Level Salt Lake Center
Tue 04:32:26 AM 47.5822 -110.5139 93° East 466 536 35,000 -50 Level Salt Lake Center
Tue 04:33:26 AM 47.5756 -110.3247 94° East 464 534 34,900 -50 Descending Salt Lake Center
Tue 04:34:26 AM 47.5661 -110.1356 93° East 462 532 34,900 50 Level Salt Lake Center
Tue 04:35:27 AM 47.5586 -109.9439 92° East 466 536 35,000 50 Climbing Salt Lake Center
Tue 04:36:27 AM 47.5531 -109.7522 92° East 468 539 35,000  Level Salt Lake Center
Tue 04:37:27 AM 47.5472 -109.5592 94° East 470 541 35,000 -50 Level Salt Lake Center
Tue 04:38:27 AM 47.5383 -109.3672 94° East 470 541 34,900 -50 Descending Salt Lake Center
Tue 04:39:27 AM 47.5297 -109.1744 94° East 471 542 34,900 50 Level Salt Lake Center
Tue 04:40:27 AM 47.5206 -108.9836 94° East 469 540 35,000 50 Climbing Salt Lake Center
Tue 04:41:27 AM 47.5119 -108.7931 94° East 467 537 35,000  Level Salt Lake Center
Tue 04:42:27 AM 47.5031 -108.6025 94° East 467 537 35,000 -50 Level Salt Lake Center
Tue 04:43:28 AM 47.4931 -108.4106 94° East 469 540 34,900  Descending Salt Lake Center
Tue 04:44:28 AM 47.4828 -108.2161 95° East 473 544 35,000 50 Climbing Salt Lake Center
Tue 04:45:28 AM 47.4717 -108.0172 95° East 475 547 35,000  Level Salt Lake Center
Tue 04:46:28 AM 47.4614 -107.8306 95° East 476 548 35,000  Level Salt Lake Center
Tue 04:47:28 AM 47.4503 -107.6433 95° East 477 549 35,000  Level Salt Lake Center
Tue 04:48:28 AM 47.4394 -107.4558 95° East 478 550 35,000  Level Salt Lake Center
Tue 04:49:28 AM 47.4264 -107.2367 95° East 479 551 35,000  Level Salt Lake Center
Tue 04:50:28 AM 47.4147 -107.0503 95° East 477 549 35,000  Level Salt Lake Center
Tue 04:51:28 AM 47.4028 -106.8631 96° East 478 550 35,000  Level Salt Lake Center
Tue 04:52:29 AM 47.3903 -106.6758 96° East 479 551 35,000  Level Salt Lake Center
Tue 04:53:29 AM 47.3750 -106.4542 96° East 483 556 35,000  Level Salt Lake Center
Tue 04:54:29 AM 47.3617 -106.2664 96° East 483 556 35,000  Level Salt Lake Center
Tue 04:55:29 AM 47.3494 -106.0897 96° East 484 557 35,000  Level Salt Lake Center
Tue 04:56:29 AM 47.3344 -105.8928 97° East 485 558 35,000  Level Salt Lake Center
Tue 04:57:29 AM 47.3189 -105.6944 96° East 487 560 35,000  Level Salt Lake Center
Tue 04:58:29 AM 47.3053 -105.4992 97° East 485 558 35,000  Level Salt Lake Center
Tue 04:59:29 AM 47.2892 -105.3014 97° East 486 559 35,000  Level Salt Lake Center
Tue 05:00:30 AM 47.2736 -105.1042 97° East 488 562 35,000  Level Salt Lake Center
Tue 05:01:30 AM 47.2578 -104.9075 97° East 487 560 35,000  Level Salt Lake Center
Tue 05:02:30 AM 47.2414 -104.7086 97° East 490 564 35,000  Level Salt Lake Center
Tue 05:03:30 AM 47.2242 -104.5106 97° East 491 565 35,000  Level Salt Lake Center
Tue 05:04:30 AM 47.2036 -104.2714 98° East 493 567 35,000  Level Salt Lake Center
Tue 05:05:30 AM 47.1847 -104.0706 98° East 496 571 35,000  Level Salt Lake Center
Tue 05:06:30 AM 47.1661 -103.8717 98° East 498 573 35,000  Level Salt Lake Center
Tue 05:07:30 AM 47.1467 -103.6714 98° East 499 574 35,000  Level Salt Lake Center
Tue 05:08:30 AM 47.1278 -103.4692 98° East 501 577 35,000  Level Salt Lake Center
Tue 05:09:30 AM 47.1078 -103.2694 98° East 501 577 35,000  Level Salt Lake Center
Tue 05:10:31 AM 47.0883 -103.0681 91° East 502 578 35,000  Level Salt Lake Center
Tue 05:11:31 AM 47.0867 -102.8608 91° East 504 580 35,000  Level Salt Lake Center
Tue 05:12:31 AM 47.0842 -102.6572 91° East 503 579 35,000  Level Salt Lake Center
Tue 05:13:31 AM 47.0819 -102.4483 92° East 509 586 35,000  Level Salt Lake Center
Tue 05:14:08 AM 47.0786 -102.3253 91° East 505 581 35,000  Level Minneapolis Center
Tue 05:15:08 AM 47.0756 -102.1197 92° East 510 587 35,000  Level Minneapolis Center
Tue 05:16:08 AM 47.0703 -101.9142 93° East 510 587 35,000  Level Minneapolis Center
Tue 05:17:08 AM 47.0619 -101.7111 90° East 502 578 35,000  Level Minneapolis Center
Tue 05:18:08 AM 47.0628 -101.4972 93° East 502 578 35,000  Level Minneapolis Center
Tue 05:19:08 AM 47.0558 -101.2944 93° East 502 578 35,000  Level Minneapolis Center
Tue 05:20:08 AM 47.0469 -101.0856 89° East 507 583 35,000  Level Minneapolis Center
Tue 05:21:08 AM 47.0481 -100.8811 94° East 507 583 35,000  Level Minneapolis Center
Tue 05:22:08 AM 47.0381 -100.6781 91° East 500 575 35,000  Level Minneapolis Center
Tue 05:23:08 AM 47.0364 -100.4703 94° East 505 581 35,000  Level Minneapolis Center
Tue 05:24:08 AM 47.0256 -100.2675 93° East 505 581 35,000  Level Minneapolis Center
Tue 05:25:08 AM 47.0186 -100.0653 93° East 505 581 35,000  Level Minneapolis Center
Tue 05:26:08 AM 47.0117 -99.8572 95° East 505 581 35,000  Level Minneapolis Center
Tue 05:27:08 AM 47.0000 -99.6544 93° East 505 581 35,000  Level Minneapolis Center
Tue 05:28:08 AM 46.9925 -99.4433 95° East 505 581 35,000  Level Minneapolis Center
Tue 05:29:08 AM 46.9803 -99.2347 94° East 505 581 35,000  Level Minneapolis Center
Tue 05:30:08 AM 46.9697 -99.0264 95° East 510 587 35,000  Level Minneapolis Center
Tue 05:31:08 AM 46.9572 -98.8089 95° East 516 594 35,000  Level Minneapolis Center
Tue 05:32:08 AM 46.9458 -98.6008 94° East 521 600 35,000  Level Minneapolis Center
Tue 05:33:08 AM 46.9364 -98.3900 95° East 521 600 35,000  Level Minneapolis Center
Tue 05:34:08 AM 46.9228 -98.1725 95° East 526 605 35,000  Level Minneapolis Center
Tue 05:35:08 AM 46.9103 -97.9617 95° East 526 605 35,000  Level Minneapolis Center
Tue 05:36:08 AM 46.8978 -97.7478 95° East 526 605 35,000  Level Minneapolis Center
Tue 05:37:08 AM 46.8847 -97.5339 95° East 526 605 35,000  Level Minneapolis Center
Tue 05:38:08 AM 46.8711 -97.3233 94° East 526 605 35,000  Level Minneapolis Center
Tue 05:39:08 AM 46.8597 -97.1067 96° East 526 605 35,000  Level Minneapolis Center
Tue 05:40:08 AM 46.8419 -96.8658 95° East 531 611 35,000  Level Minneapolis Center
Tue 05:41:08 AM 46.8275 -96.6494 96° East 536 617 35,000  Level Minneapolis Center
Tue 05:42:08 AM 46.8106 -96.4297 95° East 541 623 35,000  Level Minneapolis Center
Tue 05:43:08 AM 46.7972 -96.2108 95° East 541 623 35,000  Level Minneapolis Center
Tue 05:44:08 AM 46.7836 -95.9917 98° East 541 623 35,000 -50 Level Minneapolis Center
Tue 05:45:08 AM 46.7633 -95.7725 97° East 541 623 34,900  Descending Minneapolis Center
Tue 05:46:08 AM 46.7444 -95.5536 96° East 541 623 35,000 50 Climbing Minneapolis Center
Tue 05:47:08 AM 46.7297 -95.3350 96° East 541 623 35,000  Level Minneapolis Center
Tue 05:48:08 AM 46.7122 -95.1133 97° East 541 623 35,000  Level Minneapolis Center
Tue 05:49:08 AM 46.6925 -94.8947 97° East 541 623 35,000  Level Minneapolis Center
Tue 05:50:08 AM 46.6722 -94.6703 97° East 546 628 35,000  Level Minneapolis Center
Tue 05:51:08 AM 46.6533 -94.4522 98° East 546 628 35,000  Level Minneapolis Center
Tue 05:52:08 AM 46.6322 -94.2281 97° East 546 628 35,000  Level Minneapolis Center
Tue 05:53:08 AM 46.6128 -94.0042 98° East 552 635 35,000  Level Minneapolis Center
Tue 05:54:08 AM 46.5908 -93.7833 98° East 552 635 35,000  Level Minneapolis Center
Tue 05:55:08 AM 46.5703 -93.5628 98° East 552 635 35,000  Level Minneapolis Center
Tue 05:56:08 AM 46.5475 -93.3364 98° East 557 641 35,000  Level Minneapolis Center
Tue 05:57:08 AM 46.5242 -93.1103 99° East 562 647 35,000  Level Minneapolis Center
Tue 05:58:08 AM 46.5003 -92.8872 98° East 562 647 35,000  Level Minneapolis Center
Tue 05:59:08 AM 46.4783 -92.6583 99° East 562 647 35,000  Level Minneapolis Center
Tue 06:00:08 AM 46.4536 -92.4356 99° East 562 647 35,000  Level Minneapolis Center
Tue 06:01:08 AM 46.4283 -92.2103 99° East 562 647 35,000  Level Minneapolis Center
Tue 06:02:08 AM 46.4031 -91.9881 99° East 562 647 35,000  Level Minneapolis Center
Tue 06:03:08 AM 46.3792 -91.7600 100° East 562 647 35,000  Level Minneapolis Center
Tue 06:04:08 AM 46.3506 -91.5353 98° East 562 647 35,000  Level Minneapolis Center
Tue 06:05:08 AM 46.3278 -91.3106 100° East 562 647 35,000  Level Minneapolis Center
Tue 06:06:08 AM 46.3006 -91.0892 100° East 557 641 35,000  Level Minneapolis Center
Tue 06:07:08 AM 46.2728 -90.8622 99° East 563 648 35,000  Level Minneapolis Center
Tue 06:08:08 AM 46.2467 -90.6383 100° East 563 648 35,000  Level Minneapolis Center
Tue 06:09:08 AM 46.2181 -90.4144 100° East 563 648 35,000  Level Minneapolis Center
Tue 06:10:08 AM 46.1889 -90.1881 100° East 563 648 35,000  Level Minneapolis Center
Tue 06:11:08 AM 46.1614 -89.9650 101° East 563 648 35,000  Level Minneapolis Center
Tue 06:12:08 AM 46.1314 -89.7389 99° East 563 648 35,000  Level Minneapolis Center
Tue 06:13:08 AM 46.1072 -89.5158 103° East 568 654 35,000  Level Minneapolis Center
Tue 06:14:08 AM 46.0750 -89.3147 101° East 568 654 35,000  Level Minneapolis Center
Tue 06:15:08 AM 46.0408 -89.0658 102° East 574 661 35,000  Level Minneapolis Center
Tue 06:16:08 AM 46.0122 -88.8678 101° East 579 666 35,000  Level Minneapolis Center
Tue 06:17:08 AM 45.9800 -88.6400 102° East 579 666 35,000  Level Minneapolis Center
Tue 06:18:08 AM 45.9472 -88.4158 101° East 579 666 35,000  Level Minneapolis Center
Tue 06:19:08 AM 45.9164 -88.1917 102° East 579 666 35,000  Level Minneapolis Center
Tue 06:20:08 AM 45.8794 -87.9442 101° East 579 666 35,000  Level Minneapolis Center
Tue 06:21:08 AM 45.8478 -87.7206 103° East 579 666 35,000  Level Minneapolis Center
Tue 06:22:08 AM 45.8114 -87.5008 103° East 579 666 35,000  Level Minneapolis Center
Tue 06:23:08 AM 45.7764 -87.2778 102° East 579 666 35,000  Level Minneapolis Center
Tue 06:24:08 AM 45.7467 -87.0786 102° East 579 666 35,000  Level Minneapolis Center
Tue 06:25:08 AM 45.7097 -86.8328 104° East 579 666 35,000  Level Minneapolis Center
Tue 06:26:08 AM 45.6714 -86.6081 103° East 579 666 35,000  Level Minneapolis Center
Tue 06:27:08 AM 45.6347 -86.3864 103° East 579 666 35,000  Level Minneapolis Center
Tue 06:28:08 AM 45.5978 -86.1653 103° East 579 666 35,000  Level Minneapolis Center
Tue 06:29:08 AM 45.5622 -85.9411 104° East 574 661 35,000  Level Minneapolis Center
Tue 06:30:08 AM 45.5247 -85.7233 104° East 579 666 35,000  Level Minneapolis Center
Tue 06:31:08 AM 45.4867 -85.5058 105° East 579 666 35,000  Level Minneapolis Center
Tue 06:32:08 AM 45.4456 -85.2833 104° East 579 666 35,000  Level Minneapolis Center
Tue 06:33:08 AM 45.4067 -85.0636 104° East 579 666 35,000  Level Minneapolis Center
Tue 06:34:08 AM 45.3672 -84.8472 105° East 579 666 35,000  Level Minneapolis Center
Tue 06:35:08 AM 45.3275 -84.6311 105° East 579 666 35,000  Level Minneapolis Center
Tue 06:36:08 AM 45.2850 -84.4100 104° East 579 666 35,000  Level Minneapolis Center
Tue 06:37:08 AM 45.2461 -84.1883 106° East 579 666 35,000  Level Minneapolis Center
Tue 06:38:08 AM 45.2028 -83.9708 105° East 579 666 35,000  Level Minneapolis Center
Tue 06:39:08 AM 45.1611 -83.7503 105° East 579 666 35,000  Level Minneapolis Center
Tue 06:40:08 AM 45.1189 -83.5303 105° East 579 666 35,000  Level Minneapolis Center
Tue 06:41:08 AM 45.0761 -83.3103 106° East 579 666 35,000  Level Minneapolis Center
Tue 06:42:08 AM 45.0375 -83.1167 106° East 579 666 35,000  Level Minneapolis Center
Tue 06:43:08 AM 44.9922 -82.8981 106° East 579 666 35,000  Level Minneapolis Center
Tue 06:44:08 AM 44.9483 -82.6794 107° East 579 666 35,000  Level Minneapolis Center
Tue 06:45:08 AM 44.9019 -82.4614 107° East 579 666 35,000  Level Minneapolis Center
Tue 06:46:25 AM 44.8333 -82.1500 102° East 580 667 35,000  Level Toronto Center
Tue 06:47:25 AM 44.8000 -81.9333 108° East 580 667 35,000  Level Toronto Center
Tue 06:48:25 AM 44.7500 -81.7167 109° East 580 667 35,000  Level Toronto Center
Tue 06:49:25 AM 44.7000 -81.5167 106° East 580 667 35,000  Level Toronto Center
Tue 06:50:25 AM 44.6500 -81.2667 111° Southeast 580 667 35,000  Level Toronto Center
Tue 06:51:25 AM 44.6000 -81.0833 107° East 570 656 35,000  Level Toronto Center
Tue 06:52:25 AM 44.5500 -80.8500 102° East 570 656 35,000  Level Toronto Center
Tue 06:53:25 AM 44.5167 -80.6333 109° East 570 656 35,000  Level Toronto Center
Tue 06:54:25 AM 44.4667 -80.4333 108° East 580 667 35,000  Level Toronto Center
Tue 06:55:25 AM 44.4167 -80.2167 108° East 580 667 35,000  Level Toronto Center
Tue 06:56:25 AM 44.3667 -80.0000 107° East 580 667 35,000  Level Toronto Center
Tue 06:57:25 AM 44.3167 -79.7667 111° Southeast 580 667 35,000  Level Toronto Center
Tue 06:58:25 AM 44.2667 -79.5833 103° East 570 656 35,000  Level Toronto Center
Tue 06:59:25 AM 44.2333 -79.3833 112° Southeast 570 656 35,000  Level Toronto Center
Tue 07:00:25 AM 44.1667 -79.1500 104° East 570 656 35,000  Level Toronto Center
Tue 07:01:25 AM 44.1333 -78.9667 107° East 570 656 35,000  Level Toronto Center
Tue 07:02:25 AM 44.0833 -78.7333 108° East 570 656 35,000  Level Toronto Center
Tue 07:03:25 AM 44.0333 -78.5167 117° Southeast 570 656 35,000  Level Toronto Center
Tue 07:04:25 AM 43.9667 -78.3333 106° East 570 656 35,000  Level Toronto Center
Tue 07:05:25 AM 43.9167 -78.1000 111° Southeast 570 656 35,000  Level Toronto Center
Tue 07:06:25 AM 43.8667 -77.9167 108° East 570 656 35,000  Level Toronto Center
Tue 07:07:25 AM 43.8167 -77.7000 108° East 570 656 35,000  Level Toronto Center
Tue 07:08:25 AM 43.7667 -77.4833 117° Southeast 570 656 35,000  Level Toronto Center
Tue 07:09:25 AM 43.7000 -77.3000 106° East 570 656 35,000  Level Toronto Center
Tue 07:10:25 AM 43.6500 -77.0667 112° Southeast 570 656 35,000  Level Toronto Center
Tue 07:11:25 AM 43.6000 -76.9000 102° East 560 644 35,000  Level Toronto Center
Tue 07:12:25 AM 43.5667 -76.6833 115° Southeast 560 644 35,000  Level Toronto Center
Tue 07:13:25 AM 43.5000 -76.4833 109° East 560 644 35,000  Level Toronto Center
Tue 07:14:25 AM 43.4500 -76.2833 115° Southeast 560 644 35,000  Level Toronto Center
Tue 07:15:25 AM 43.3833 -76.0833 108° East 560 644 35,000  Level Toronto Center
Tue 07:16:25 AM 43.3333 -75.8667 112° Southeast 550 633 35,000  Level Toronto Center
Tue 07:17:25 AM 43.2833 -75.7000 113° Southeast 550 633 35,000  Level Toronto Center
Tue 07:18:25 AM 43.2167 -75.4833 105° East 550 633 35,000 50 Level Toronto Center
Tue 07:19:25 AM 43.1833 -75.3167 114° Southeast 550 633 35,100  Climbing Toronto Center
Tue 07:20:25 AM 43.1167 -75.1167 109° East 540 621 35,000 -100 Descending Toronto Center
Tue 07:21:25 AM 43.0667 -74.9167 113° Southeast 540 621 34,900  Descending Toronto Center
Tue 07:22:25 AM 43.0000 -74.7000 105° East 540 621 35,000 50 Climbing Toronto Center
Tue 07:23:25 AM 42.9667 -74.5333 114° Southeast 540 621 35,000  Level Toronto Center
Tue 07:24:25 AM 42.9000 -74.3333 111° Southeast 540 621 35,000  Level Toronto Center
Tue 07:25:50 AM 42.8364 -74.1078 113° Southeast 539 620 35,000  Level Boston Center
Tue 07:26:50 AM 42.7844 -73.9394 109° East 539 620 35,000  Level Boston Center
Tue 07:27:50 AM 42.7367 -73.7461 97° East 539 620 35,000  Level Boston Center
Tue 07:28:50 AM 42.7181 -73.5450 98° East 528 608 35,000 -1,100 Level Boston Center
Tue 07:29:50 AM 42.6950 -73.3214 100° East 528 608 32,800 -2,950 Descending Boston Center
Tue 07:30:50 AM 42.6694 -73.1178 97° East 539 620 29,100 -3,050 Descending Boston Center
Tue 07:31:50 AM 42.6517 -72.9086 99° East 554 638 26,700 -2,150 Descending Boston Center
Tue 07:32:50 AM 42.6272 -72.7081 98° East 554 638 24,800 -2,200 Descending Boston Center
Tue 07:33:50 AM 42.6089 -72.5247 101° East 519 597 22,300 -2,450 Descending Boston Center
Tue 07:34:50 AM 42.5817 -72.3386 99° East 506 582 19,900 -2,200 Descending Boston Center
Tue 07:35:50 AM 42.5606 -72.1667 100° East 476 548 17,900 -1,800 Descending Boston Center
Tue 07:36:50 AM 42.5414 -72.0147 96° East 458 527 16,300 -2,150 Descending Boston Center
Tue 07:37:50 AM 42.5281 -71.8400 97° East 434 499 13,600 -2,350 Descending Boston Center
Tue 07:38:50 AM 42.5147 -71.6992 98° East 422 486 11,600 -1,500 Descending Boston Center
Tue 07:39:50 AM 42.4989 -71.5389 98° East 398 458 10,600 -950 Descending Boston Center
Tue 07:40:50 AM 42.4875 -71.4236 94° East 360 414 9,700 -909 Descending Boston Center
Tue 07:41:29 AM 42.4833 -71.3333 101° East 325 374 9,100 -788 Descending Boston TRACON
Tue 07:42:29 AM 42.4667 -71.2167 90° East 289 333 8,400 -667 Descending Boston TRACON
Tue 07:43:35 AM 42.4667 -71.1167 103° East 265 305 7,700 -667 Descending Boston TRACON
Tue 07:44:35 AM 42.4500 -71.0167 90° East 251 289 7,000 -800 Descending Boston TRACON
Tue 07:45:35 AM 42.4500 -70.9333 77° East 240 276 6,100 -1,100 Descending Boston TRACON
Tue 07:46:35 AM 42.4667 -70.8333 77° East 235 270 4,800 -1,300 Descending Boston TRACON

Login

Don't have an account? Register now (free) for customized features, flight alerts, and more!